createdAt,value
2022-07-29T00:01:05.120Z,1.10
2022-07-29T00:03:32.102Z,1.13
2022-07-29T00:05:59.331Z,1.00
2022-07-29T00:08:27.838Z,1.20
2022-07-29T00:10:54.663Z,1.00
2022-07-29T00:13:32.213Z,1.10
2022-07-29T00:16:04.595Z,1.20
2022-07-29T00:18:31.990Z,1.10
2022-07-29T00:20:58.781Z,0.93
2022-07-29T00:23:25.640Z,1.15
2022-07-29T00:25:52.389Z,1.27
2022-07-29T00:28:19.361Z,1.63
2022-07-29T00:30:47.575Z,1.17
2022-07-29T00:33:14.435Z,1.05
2022-07-29T00:35:47.427Z,1.20
2022-07-29T00:38:16.370Z,1.40
2022-07-29T00:40:44.651Z,1.30
2022-07-29T00:43:12.665Z,1.20
2022-07-29T00:45:39.712Z,1.20
2022-07-29T00:48:09.931Z,1.20
2022-07-29T00:50:37.903Z,1.13
2022-07-29T00:53:05.397Z,1.02
2022-07-29T00:55:32.316Z,1.30
2022-07-29T00:57:59.909Z,1.70
2022-07-29T01:00:29.039Z,1.38
2022-07-29T01:02:55.901Z,1.55
2022-07-29T01:05:25.719Z,1.40
2022-07-29T01:08:14.225Z,1.50
2022-07-29T01:10:42.395Z,1.27
2022-07-29T01:13:10.315Z,1.40
2022-07-29T01:15:49.291Z,1.23
2022-07-29T01:18:22.003Z,1.10
2022-07-29T01:21:11.264Z,1.45
2022-07-29T01:23:58.702Z,1.40
2022-07-29T01:26:46.819Z,1.23
2022-07-29T01:29:24.675Z,1.20
2022-07-29T01:31:59.279Z,1.70
2022-07-29T01:34:39.627Z,1.20
2022-07-29T01:37:16.457Z,1.30
2022-07-29T01:39:45.443Z,1.40
2022-07-29T01:42:20.301Z,1.30
2022-07-29T01:44:54.989Z,1.00
2022-07-29T01:47:26.194Z,1.20
2022-07-29T01:49:56.164Z,1.40
2022-07-29T01:52:29.852Z,1.30
2022-07-29T01:54:59.718Z,1.17
2022-07-29T01:57:30.470Z,1.95
2022-07-29T02:00:01.426Z,1.65
2022-07-29T02:05:08.861Z,1.30
2022-07-29T02:07:37.852Z,1.50
2022-07-29T02:10:07.906Z,1.40
2022-07-29T02:12:36.749Z,1.30
2022-07-29T02:15:06.957Z,1.40
2022-07-29T02:17:38.767Z,1.75
2022-07-29T02:20:09.264Z,1.50
2022-07-29T02:22:40.198Z,1.25
2022-07-29T02:25:14.067Z,1.50
2022-07-29T02:27:42.637Z,1.33
2022-07-29T02:30:13.560Z,1.25
2022-07-29T02:32:42.828Z,1.55
2022-07-29T02:35:11.707Z,1.38
2022-07-29T02:37:39.432Z,1.48
2022-07-29T02:40:11.171Z,1.73
2022-07-29T02:42:39.808Z,1.35
2022-07-29T02:45:09.320Z,1.48
2022-07-29T02:47:42.237Z,1.38
2022-07-29T02:50:15.194Z,1.13
2022-07-29T02:52:45.100Z,1.50
2022-07-29T02:55:16.439Z,1.67
2022-07-29T02:57:54.104Z,1.20
2022-07-29T03:00:24.703Z,1.20
2022-07-29T03:02:56.000Z,1.40
2022-07-29T03:05:24.028Z,1.45
2022-07-29T03:07:55.969Z,1.10
2022-07-29T03:10:24.105Z,1.10
2022-07-29T03:12:51.676Z,1.48
2022-07-29T03:15:19.954Z,1.30
2022-07-29T03:17:47.385Z,1.35
2022-07-29T03:20:16.595Z,1.40
2022-07-29T03:22:45.234Z,1.17
2022-07-29T03:25:13.492Z,1.30
2022-07-29T03:27:40.616Z,1.27
2022-07-29T03:30:09.189Z,1.30
2022-07-29T03:32:36.299Z,1.10
2022-07-29T03:35:04.188Z,1.33
2022-07-29T03:37:32.589Z,1.30
2022-07-29T03:39:59.600Z,1.60
2022-07-29T03:42:34.154Z,1.55
2022-07-29T03:45:04.481Z,1.98
2022-07-29T03:47:39.308Z,1.60
2022-07-29T03:50:20.466Z,1.27
2022-07-29T03:52:50.031Z,1.27
2022-07-29T04:00:12.713Z,1.20
2022-07-29T04:02:41.337Z,1.40
2022-07-29T04:05:13.890Z,1.45
2022-07-29T04:07:41.058Z,1.35
2022-07-29T04:10:10.194Z,1.60
2022-07-29T04:12:37.492Z,1.50
2022-07-29T04:15:04.999Z,1.73
2022-07-29T04:17:31.809Z,1.65
2022-07-29T04:19:58.900Z,1.40
2022-07-29T04:22:25.838Z,1.40
2022-07-29T04:24:54.254Z,1.50
2022-07-29T04:27:22.482Z,1.40
2022-07-29T04:29:56.757Z,1.40
2022-07-29T04:32:24.682Z,1.42
2022-07-29T04:34:51.745Z,1.50
2022-07-29T04:37:18.570Z,1.60
2022-07-29T04:39:45.535Z,1.70
2022-07-29T04:42:12.341Z,1.38
2022-07-29T04:44:43.162Z,1.60
2022-07-29T04:47:10.259Z,1.42
2022-07-29T04:49:39.093Z,1.40
2022-07-29T04:52:06.497Z,1.17
2022-07-29T04:54:33.449Z,1.60
2022-07-29T04:57:00.324Z,1.50
2022-07-29T04:59:27.721Z,1.38
2022-07-29T05:01:55.959Z,1.35
2022-07-29T05:04:23.163Z,1.50
2022-07-29T05:06:50.204Z,1.60
2022-07-29T05:09:17.106Z,1.30
2022-07-29T05:11:44.025Z,1.30
2022-07-29T05:14:10.886Z,1.20
2022-07-29T05:16:37.715Z,1.42
2022-07-29T05:19:08.598Z,1.50
2022-07-29T05:21:38.019Z,1.42
2022-07-29T05:24:05.432Z,1.33
2022-07-29T05:26:32.530Z,1.25
2022-07-29T05:28:59.450Z,1.40
2022-07-29T05:31:26.329Z,1.30
2022-07-29T05:33:53.158Z,1.40
2022-07-29T05:36:21.290Z,1.40
2022-07-29T05:38:48.164Z,1.38
2022-07-29T05:41:15.007Z,1.50
2022-07-29T05:43:42.113Z,1.30
2022-07-29T05:46:09.073Z,1.30
2022-07-29T05:48:36.029Z,1.50
2022-07-29T05:51:02.976Z,1.50
2022-07-29T05:53:31.325Z,1.27
2022-07-29T05:55:58.066Z,1.52
2022-07-29T05:58:24.924Z,1.17
2022-07-29T06:00:51.839Z,0.93
2022-07-29T06:03:18.711Z,1.20
2022-07-29T06:05:45.537Z,1.20
2022-07-29T06:08:12.340Z,1.30
2022-07-29T06:10:40.689Z,1.20
2022-07-29T06:13:07.513Z,1.40
2022-07-29T06:15:34.531Z,1.30
2022-07-29T06:18:02.285Z,1.70
2022-07-29T06:20:31.415Z,1.40
2022-07-29T06:22:59.429Z,1.30
2022-07-29T06:25:26.997Z,1.25
2022-07-29T06:27:55.475Z,1.38
2022-07-29T06:30:22.893Z,1.27
2022-07-29T06:32:50.710Z,1.30
2022-07-29T06:35:41.177Z,1.48
2022-07-29T06:38:05.241Z,2.08
2022-07-29T06:41:04.961Z,1.58
2022-07-29T06:43:50.083Z,1.77
2022-07-29T06:46:19.060Z,1.50
2022-07-29T06:48:46.890Z,1.40
2022-07-29T06:51:13.640Z,1.38
2022-07-29T06:54:00.348Z,1.92
2022-07-29T06:56:28.348Z,1.38
2022-07-29T06:58:56.565Z,1.30
2022-07-29T07:01:23.356Z,1.30
2022-07-29T07:03:50.239Z,1.10
2022-07-29T07:06:17.391Z,1.35
2022-07-29T07:08:44.847Z,1.42
2022-07-29T07:11:11.678Z,1.55
2022-07-29T07:13:38.792Z,1.33
2022-07-29T07:16:07.092Z,1.55
2022-07-29T07:18:34.238Z,1.75
2022-07-29T07:21:01.304Z,1.33
2022-07-29T07:23:28.292Z,1.70
2022-07-29T07:25:55.129Z,1.55
2022-07-29T07:28:24.692Z,1.30
2022-07-29T07:30:52.099Z,1.63
2022-07-29T07:33:20.546Z,1.70
2022-07-29T07:35:47.534Z,2.17
2022-07-29T07:38:15.023Z,1.70
2022-07-29T07:40:42.497Z,1.30
2022-07-29T07:43:09.243Z,1.40
2022-07-29T07:45:38.372Z,1.42
2022-07-29T07:50:33.854Z,1.67
2022-07-29T07:53:03.017Z,1.52
2022-07-29T07:55:53.245Z,1.33
2022-07-29T07:58:16.854Z,1.40
2022-07-29T08:00:46.069Z,1.05
2022-07-29T08:03:16.591Z,1.13
2022-07-29T08:05:45.909Z,1.27
2022-07-29T08:08:15.394Z,1.30
2022-07-29T08:10:54.465Z,1.38
2022-07-29T08:13:22.616Z,1.33
2022-07-29T08:15:58.762Z,1.27
2022-07-29T08:18:26.604Z,1.10
2022-07-29T08:20:55.206Z,1.27
2022-07-29T08:23:22.483Z,1.40
2022-07-29T08:25:50.290Z,1.38
2022-07-29T08:28:17.331Z,1.58
2022-07-29T08:30:44.380Z,1.55
2022-07-29T08:33:11.257Z,1.35
2022-07-29T08:35:39.968Z,1.40
2022-07-29T08:38:08.143Z,1.10
2022-07-29T08:40:34.945Z,1.20
2022-07-29T08:43:08.489Z,1.25
2022-07-29T08:45:48.192Z,1.30
2022-07-29T08:48:17.790Z,3.88
2022-07-29T08:50:46.744Z,1.60
2022-07-29T08:53:18.015Z,2.40
2022-07-29T08:55:46.366Z,1.67
2022-07-29T08:58:15.687Z,1.98
2022-07-29T09:00:44.383Z,1.40
2022-07-29T09:03:15.888Z,1.50
2022-07-29T09:05:47.759Z,1.95
2022-07-29T09:08:17.257Z,1.50
2022-07-29T09:10:44.683Z,1.52
2022-07-29T09:13:11.571Z,1.42
2022-07-29T09:15:38.319Z,1.38
2022-07-29T09:18:05.103Z,1.40
2022-07-29T09:20:51.797Z,1.30
2022-07-29T09:23:24.613Z,1.73
2022-07-29T09:25:51.827Z,1.25
2022-07-29T09:28:19.097Z,1.60
2022-07-29T09:30:52.327Z,1.70
2022-07-29T09:33:19.923Z,2.08
2022-07-29T09:35:56.589Z,1.42
2022-07-29T09:38:25.547Z,1.80
2022-07-29T09:41:05.615Z,1.63
2022-07-29T09:43:33.496Z,1.52
2022-07-29T09:46:12.273Z,1.60
2022-07-29T09:48:39.416Z,1.60
2022-07-29T09:51:07.512Z,1.40
2022-07-29T09:53:38.159Z,1.67
2022-07-29T09:56:06.063Z,1.83
2022-07-29T09:58:34.770Z,1.90
2022-07-29T10:01:02.762Z,1.70
2022-07-29T10:03:29.997Z,1.50
2022-07-29T10:06:08.275Z,2.00
2022-07-29T10:08:37.203Z,1.60
2022-07-29T10:13:41.919Z,2.25
2022-07-29T10:16:09.377Z,1.70
2022-07-29T10:18:38.679Z,2.08
2022-07-29T10:21:05.699Z,1.98
2022-07-29T10:23:46.310Z,2.90
2022-07-29T10:26:16.649Z,1.90
2022-07-29T10:28:43.428Z,1.85
2022-07-29T10:31:16.648Z,1.63
2022-07-29T10:33:54.032Z,1.30
2022-07-29T10:36:33.697Z,1.90
2022-07-29T10:39:15.546Z,2.60
2022-07-29T10:42:03.600Z,1.75
2022-07-29T10:44:31.378Z,1.85
2022-07-29T10:46:58.934Z,1.90
2022-07-29T10:49:30.347Z,2.15
2022-07-29T10:52:00.919Z,2.00
2022-07-29T10:54:54.868Z,2.13
2022-07-29T10:57:53.207Z,1.83
2022-07-29T11:00:29.948Z,2.50
2022-07-29T11:02:59.535Z,2.10
2022-07-29T11:05:39.926Z,1.98
2022-07-29T11:08:35.053Z,3.35
2022-07-29T11:11:31.906Z,1.90
2022-07-29T11:14:00.705Z,2.10
2022-07-29T11:17:06.304Z,2.40
2022-07-29T11:19:34.474Z,2.45
2022-07-29T11:22:03.059Z,1.55
2022-07-29T11:24:34.784Z,2.17
2022-07-29T11:27:18.389Z,2.30
2022-07-29T11:29:57.283Z,1.92
2022-07-29T11:32:29.241Z,2.20
2022-07-29T11:35:17.601Z,2.10
2022-07-29T11:37:52.261Z,2.58
2022-07-29T11:40:23.064Z,2.60
2022-07-29T11:42:52.177Z,1.90
2022-07-29T11:45:44.272Z,2.00
2022-07-29T11:48:29.494Z,2.20
2022-07-29T11:51:00.267Z,1.75
2022-07-29T11:56:16.429Z,2.47
2022-07-29T11:58:44.181Z,2.10
2022-07-29T12:01:18.525Z,2.40
2022-07-29T12:03:45.458Z,2.20
2022-07-29T12:06:14.815Z,2.40
2022-07-29T12:08:44.000Z,2.50
2022-07-29T12:11:17.717Z,2.03
2022-07-29T12:13:49.315Z,2.47
2022-07-29T12:16:29.302Z,2.45
2022-07-29T12:19:02.456Z,2.60
2022-07-29T12:21:30.239Z,2.30
2022-07-29T12:24:03.471Z,2.53
2022-07-29T12:26:34.121Z,1.90
2022-07-29T12:29:03.288Z,2.40
2022-07-29T12:31:43.517Z,2.67
2022-07-29T12:34:12.831Z,2.45
2022-07-29T12:36:39.693Z,2.70
2022-07-29T12:39:06.656Z,3.00
2022-07-29T12:41:33.550Z,2.28
2022-07-29T12:44:00.456Z,2.20
2022-07-29T12:46:27.554Z,2.42
2022-07-29T12:48:56.277Z,2.63
2022-07-29T12:51:30.252Z,2.65
2022-07-29T12:54:05.951Z,2.25
2022-07-29T12:56:42.761Z,2.42
2022-07-29T12:59:18.845Z,2.35
2022-07-29T13:01:48.111Z,2.40
2022-07-29T13:04:27.868Z,2.40
2022-07-29T13:07:00.804Z,2.90
2022-07-29T13:09:38.213Z,2.78
2022-07-29T13:12:08.598Z,2.50
2022-07-29T13:14:37.869Z,3.00
2022-07-29T13:17:06.803Z,3.15
2022-07-29T13:19:37.716Z,2.40
2022-07-29T13:22:05.424Z,2.35
2022-07-29T13:24:32.257Z,2.78
2022-07-29T13:26:59.143Z,3.38
2022-07-29T13:29:31.349Z,2.50
2022-07-29T13:31:58.941Z,2.60
2022-07-29T13:34:26.118Z,2.70
2022-07-29T13:36:54.527Z,2.63
2022-07-29T13:39:21.307Z,3.67
2022-07-29T13:41:48.139Z,3.10
2022-07-29T13:44:16.104Z,2.33
2022-07-29T13:46:42.977Z,3.28
2022-07-29T13:49:09.795Z,3.28
2022-07-29T13:51:36.668Z,3.30
2022-07-29T13:54:04.840Z,3.15
2022-07-29T13:56:31.873Z,3.28
2022-07-29T13:58:58.660Z,3.25
2022-07-29T14:01:26.192Z,3.30
2022-07-29T14:03:52.993Z,3.15
2022-07-29T14:06:20.183Z,2.75
2022-07-29T14:08:49.320Z,3.42
2022-07-29T14:11:17.521Z,3.00
2022-07-29T14:13:45.802Z,3.08
2022-07-29T14:16:12.820Z,2.90
2022-07-29T14:18:39.729Z,2.70
2022-07-29T14:21:06.555Z,2.63
2022-07-29T14:23:33.404Z,3.05
2022-07-29T14:26:00.815Z,2.80
2022-07-29T14:28:29.733Z,2.38
2022-07-29T14:33:23.175Z,3.35
2022-07-29T14:35:50.049Z,3.47
2022-07-29T14:38:16.820Z,2.53
2022-07-29T14:40:43.649Z,2.53
2022-07-29T14:43:10.404Z,2.85
2022-07-29T14:45:38.565Z,2.35
2022-07-29T14:48:05.859Z,2.40
2022-07-29T14:50:33.224Z,3.25
2022-07-29T14:53:00.109Z,3.22
2022-07-29T14:55:27.188Z,2.40
2022-07-29T14:58:03.089Z,2.70
2022-07-29T15:00:34.931Z,2.92
2022-07-29T15:03:03.923Z,2.70
2022-07-29T15:05:31.485Z,2.95
2022-07-29T15:07:58.414Z,2.78
2022-07-29T15:10:27.142Z,2.17
2022-07-29T15:12:53.943Z,3.33
2022-07-29T15:15:20.886Z,2.67
2022-07-29T15:17:47.903Z,2.58
2022-07-29T15:20:16.101Z,2.25
2022-07-29T15:22:43.941Z,2.40
2022-07-29T15:25:11.163Z,2.60
2022-07-29T15:27:38.084Z,2.58
2022-07-29T15:30:05.739Z,2.28
2022-07-29T15:32:32.611Z,2.90
2022-07-29T15:34:59.512Z,2.45
2022-07-29T15:37:29.670Z,2.42
2022-07-29T15:40:16.551Z,3.15
2022-07-29T15:42:43.329Z,2.75
2022-07-29T15:45:10.621Z,3.10
2022-07-29T15:47:37.580Z,3.15
2022-07-29T15:50:05.533Z,2.90
2022-07-29T15:52:33.894Z,2.10
2022-07-29T15:55:00.718Z,2.80
2022-07-29T15:57:27.463Z,2.60
2022-07-29T15:59:54.338Z,2.38
2022-07-29T16:02:21.135Z,2.22
2022-07-29T16:04:47.986Z,2.35
2022-07-29T16:07:14.740Z,2.15
2022-07-29T16:09:43.656Z,2.65
2022-07-29T16:14:42.822Z,2.72
2022-07-29T16:17:09.660Z,3.13
2022-07-29T16:19:41.500Z,2.72
2022-07-29T16:22:08.331Z,2.63
2022-07-29T16:24:35.193Z,2.72
2022-07-29T16:27:03.498Z,3.15
2022-07-29T16:29:30.346Z,3.00
2022-07-29T16:31:57.257Z,2.83
2022-07-29T16:34:24.363Z,2.90
2022-07-29T16:36:51.171Z,2.20
2022-07-29T16:39:17.908Z,3.00
2022-07-29T16:41:44.680Z,3.00
2022-07-29T16:44:12.931Z,2.42
2022-07-29T16:46:39.672Z,2.78
2022-07-29T16:49:08.436Z,3.17
2022-07-29T16:51:35.386Z,2.38
2022-07-29T16:54:02.227Z,3.22
2022-07-29T16:56:29.061Z,3.05
2022-07-29T16:58:57.476Z,2.50
2022-07-29T17:01:25.677Z,2.63
2022-07-29T17:04:07.546Z,3.15
2022-07-29T17:06:35.199Z,2.92
2022-07-29T17:09:02.395Z,2.33
2022-07-29T17:11:52.426Z,2.50
2022-07-29T17:14:16.438Z,3.15
2022-07-29T17:17:00.627Z,2.55
2022-07-29T17:19:31.212Z,2.90
2022-07-29T17:22:06.352Z,2.55
2022-07-29T17:24:36.066Z,2.50
2022-07-29T17:27:02.988Z,2.42
2022-07-29T17:29:32.244Z,2.63
2022-07-29T17:34:27.353Z,2.50
2022-07-29T17:36:54.141Z,2.78
2022-07-29T17:39:21.759Z,2.30
2022-07-29T17:41:48.662Z,2.50
2022-07-29T17:44:15.538Z,2.20
2022-07-29T17:46:42.502Z,2.78
2022-07-29T17:49:11.331Z,3.03
2022-07-29T17:51:38.499Z,2.30
2022-07-29T17:54:05.509Z,2.08
2022-07-29T17:56:34.267Z,2.60
2022-07-29T17:59:06.466Z,2.42
2022-07-29T18:01:34.058Z,2.40
2022-07-29T18:04:02.428Z,2.50
2022-07-29T18:06:31.016Z,2.00
2022-07-29T18:08:57.779Z,2.47
2022-07-29T18:11:24.659Z,2.53
2022-07-29T18:13:52.019Z,2.10
2022-07-29T18:16:19.676Z,2.22
2022-07-29T18:18:46.807Z,2.58
2022-07-29T18:21:13.666Z,2.38
2022-07-29T18:23:42.600Z,2.90
2022-07-29T18:26:09.821Z,2.70
2022-07-29T18:28:36.737Z,2.03
2022-07-29T18:31:03.699Z,2.30
2022-07-29T18:33:32.517Z,2.33
2022-07-29T18:36:10.065Z,2.30
2022-07-29T18:38:38.363Z,2.35
2022-07-29T18:41:06.551Z,2.67
2022-07-29T18:43:33.471Z,2.30
2022-07-29T18:46:00.570Z,2.47
2022-07-29T18:48:27.373Z,2.63
2022-07-29T18:50:54.480Z,2.60
2022-07-29T18:53:21.257Z,2.13
2022-07-29T18:55:48.068Z,2.53
2022-07-29T18:58:16.158Z,2.53
2022-07-29T19:00:43.533Z,2.47
2022-07-29T19:03:10.548Z,2.53
2022-07-29T19:05:37.477Z,2.53
2022-07-29T19:08:04.611Z,2.40
2022-07-29T19:10:31.427Z,2.53
2022-07-29T19:12:58.826Z,2.42
2022-07-29T19:15:27.531Z,3.45
2022-07-29T19:17:59.022Z,3.50
2022-07-29T19:20:27.762Z,3.13
2022-07-29T19:22:54.586Z,3.13
2022-07-29T19:25:23.084Z,2.88
2022-07-29T19:27:49.871Z,2.90
2022-07-29T19:30:16.991Z,2.60
2022-07-29T19:32:45.112Z,2.83
2022-07-29T19:35:30.555Z,3.28
2022-07-29T19:38:00.779Z,3.92
2022-07-29T19:40:28.890Z,3.70
2022-07-29T19:42:56.172Z,2.95
2022-07-29T19:45:24.879Z,4.55
2022-07-29T19:47:57.697Z,2.70
2022-07-29T19:50:27.679Z,3.55
2022-07-29T19:52:54.573Z,3.22
2022-07-29T19:55:22.004Z,3.25
2022-07-29T19:57:49.015Z,3.20
2022-07-29T20:00:16.442Z,3.55
2022-07-29T20:02:43.724Z,3.50
2022-07-29T20:05:12.346Z,3.17
2022-07-29T20:07:40.086Z,3.10
2022-07-29T20:10:08.956Z,4.07
2022-07-29T20:12:38.020Z,3.25
2022-07-29T20:15:07.244Z,4.00
2022-07-29T20:17:39.763Z,3.20
2022-07-29T20:20:09.150Z,3.28
2022-07-29T20:22:37.822Z,3.38
2022-07-29T20:25:05.894Z,3.45
2022-07-29T20:27:32.748Z,4.25
2022-07-29T20:29:59.498Z,3.85
2022-07-29T20:32:26.602Z,3.90
2022-07-29T20:34:53.715Z,4.07
2022-07-29T20:37:20.709Z,4.22
2022-07-29T20:39:48.920Z,4.47
2022-07-29T20:42:15.760Z,5.00
2022-07-29T20:44:43.133Z,4.03
2022-07-29T20:47:10.003Z,4.45
2022-07-29T20:49:37.104Z,4.65
2022-07-29T20:52:04.205Z,4.53
2022-07-29T20:54:31.129Z,4.18
2022-07-29T20:56:59.618Z,5.13
2022-07-29T20:59:26.605Z,5.68
2022-07-29T21:01:55.669Z,5.13
2022-07-29T21:04:22.564Z,4.60
2022-07-29T21:06:57.775Z,5.43
2022-07-29T21:09:24.823Z,4.25
2022-07-29T21:11:51.621Z,4.43
2022-07-29T21:14:40.190Z,4.88
2022-07-29T21:17:10.374Z,4.97
2022-07-29T21:19:37.214Z,4.30
2022-07-29T21:22:04.024Z,4.53
2022-07-29T21:24:30.843Z,4.88
2022-07-29T21:27:21.134Z,4.75
2022-07-29T21:29:49.979Z,4.70
2022-07-29T21:32:29.614Z,4.75
2022-07-29T21:34:57.303Z,5.00
2022-07-29T21:37:24.367Z,5.50
2022-07-29T21:39:51.489Z,5.13
2022-07-29T21:42:18.285Z,5.35
2022-07-29T21:44:45.394Z,5.30
2022-07-29T21:47:13.596Z,5.47
2022-07-29T21:49:40.425Z,5.95
2022-07-29T21:52:07.917Z,6.05
2022-07-29T21:54:35.836Z,5.97
2022-07-29T21:57:03.197Z,5.43
2022-07-29T21:59:30.467Z,5.90
2022-07-29T22:02:01.112Z,6.07
2022-07-29T22:04:29.806Z,5.70
2022-07-29T22:06:58.182Z,5.05
2022-07-29T22:09:25.723Z,5.68
2022-07-29T22:11:52.641Z,6.70
2022-07-29T22:14:19.550Z,6.22
2022-07-29T22:16:47.770Z,5.57
2022-07-29T22:19:15.403Z,5.72
2022-07-29T22:21:43.684Z,5.38
2022-07-29T22:24:11.294Z,5.68
2022-07-29T22:26:38.494Z,5.55
2022-07-29T22:29:05.525Z,4.32
2022-07-29T22:31:32.546Z,6.00
2022-07-29T22:33:59.418Z,5.85
2022-07-29T22:36:26.869Z,6.32
2022-07-29T22:38:55.043Z,5.30
2022-07-29T22:41:21.810Z,6.15
2022-07-29T22:43:48.570Z,7.00
2022-07-29T22:46:15.475Z,6.72
2022-07-29T22:48:42.459Z,7.13
2022-07-29T22:51:09.305Z,6.35
2022-07-29T22:53:37.020Z,7.22
2022-07-29T22:56:05.906Z,7.05
2022-07-29T22:58:32.674Z,7.25
2022-07-29T23:00:59.567Z,7.25
2022-07-29T23:03:26.610Z,7.20
2022-07-29T23:05:53.393Z,7.65
2022-07-29T23:08:20.691Z,7.60
2022-07-29T23:10:47.616Z,7.43
2022-07-29T23:13:15.840Z,7.32
2022-07-29T23:15:43.179Z,7.85
2022-07-29T23:18:10.003Z,8.57
2022-07-29T23:20:36.888Z,8.05
2022-07-29T23:23:04.098Z,8.50
2022-07-29T23:25:31.272Z,8.73
2022-07-29T23:27:58.144Z,9.55
2022-07-29T23:30:26.810Z,8.82
2022-07-29T23:32:54.929Z,8.48
2022-07-29T23:35:25.661Z,8.75
2022-07-29T23:37:52.727Z,9.50
2022-07-29T23:40:19.785Z,8.48
2022-07-29T23:42:46.541Z,7.90
2022-07-29T23:45:13.988Z,7.50
2022-07-29T23:47:42.405Z,8.25
2022-07-29T23:50:14.079Z,8.23
2022-07-29T23:52:41.352Z,7.30
2022-07-29T23:55:36.854Z,8.20
2022-07-29T23:57:55.737Z,6.90
